createdAt,value
2023-01-19T00:00:50.101Z,96503.31
2023-01-19T00:03:17.884Z,96511.34
2023-01-19T00:05:46.684Z,96517.69
2023-01-19T00:08:14.920Z,96515.50
2023-01-19T00:10:46.399Z,96521.44
2023-01-19T00:13:15.136Z,96513.41
2023-01-19T00:15:44.027Z,96506.63
2023-01-19T00:18:11.723Z,96514.50
2023-01-19T00:20:40.594Z,96517.28
2023-01-19T00:23:08.851Z,96513.97
2023-01-19T00:25:44.373Z,96518.38
2023-01-19T00:28:15.369Z,96519.34
2023-01-19T00:30:44.377Z,96514.50
2023-01-19T00:33:15.943Z,96519.75
2023-01-19T00:35:44.020Z,96520.44
2023-01-19T00:38:12.714Z,96526.94
2023-01-19T00:40:40.541Z,96522.50
2023-01-19T00:43:08.272Z,96528.75
2023-01-19T00:45:36.176Z,96526.00
2023-01-19T00:48:04.430Z,96520.75
2023-01-19T00:50:33.854Z,96526.00
2023-01-19T00:53:02.356Z,96526.94
2023-01-19T00:55:33.394Z,96528.75
2023-01-19T00:58:02.809Z,96520.03
2023-01-19T01:00:30.963Z,96521.25
2023-01-19T01:02:59.217Z,96530.13
2023-01-19T01:05:27.245Z,96518.78
2023-01-19T01:07:55.336Z,96537.00
2023-01-19T01:10:27.977Z,96525.56
2023-01-19T01:13:21.015Z,96533.44
2023-01-19T01:15:43.938Z,96531.63
2023-01-19T01:18:11.783Z,96537.56
2023-01-19T01:20:39.887Z,96530.53
2023-01-19T01:23:07.942Z,96536.75
2023-01-19T01:25:37.837Z,96542.13
2023-01-19T01:28:08.670Z,96538.94
2023-01-19T01:30:40.025Z,96536.44
2023-01-19T01:33:08.430Z,96532.75
2023-01-19T01:35:36.544Z,96542.44
2023-01-19T01:38:04.359Z,96536.44
2023-01-19T01:40:32.319Z,96541.00
2023-01-19T01:43:00.247Z,96543.91
2023-01-19T01:45:35.749Z,96553.44
2023-01-19T01:48:27.061Z,96553.72
2023-01-19T01:51:19.249Z,96546.53
2023-01-19T01:53:59.815Z,96553.41
2023-01-19T01:56:52.440Z,96553.59
2023-01-19T01:59:26.845Z,96552.19
2023-01-19T02:02:27.978Z,96553.16
2023-01-19T02:05:10.866Z,96559.38
2023-01-19T02:08:09.185Z,96553.72
2023-01-19T02:10:55.506Z,96551.22
2023-01-19T02:13:24.316Z,96548.03
2023-01-19T02:15:57.918Z,96550.94
2023-01-19T02:18:30.342Z,96547.47
2023-01-19T02:21:24.557Z,96541.66
2023-01-19T02:23:58.064Z,96536.28
2023-01-19T02:26:35.003Z,96549.53
2023-01-19T02:29:07.651Z,96547.75
2023-01-19T02:31:39.020Z,96545.25
2023-01-19T02:34:11.129Z,96547.19
2023-01-19T02:36:51.939Z,96546.88
2023-01-19T02:39:31.192Z,96540.44
2023-01-19T02:42:10.913Z,96537.81
2023-01-19T02:44:40.667Z,96542.34
2023-01-19T02:47:08.501Z,96546.63
2023-01-19T02:49:36.586Z,96547.56
2023-01-19T02:52:04.913Z,96544.69
2023-01-19T02:55:00.355Z,96544.41
2023-01-19T02:58:02.154Z,96550.50
2023-01-19T03:01:15.357Z,96547.88
2023-01-19T03:03:56.035Z,96546.38
2023-01-19T03:06:43.921Z,96547.03
2023-01-19T03:09:26.768Z,96550.78
2023-01-19T03:12:26.656Z,96548.31
2023-01-19T03:15:03.623Z,96550.94
2023-01-19T03:17:34.699Z,96555.19
2023-01-19T03:20:04.835Z,96553.13
2023-01-19T03:22:34.104Z,96551.34
2023-01-19T03:25:03.262Z,96550.94
2023-01-19T03:27:40.961Z,96551.66
2023-01-19T03:30:18.673Z,96546.53
2023-01-19T03:33:01.914Z,96545.84
2023-01-19T03:35:35.081Z,96550.94
2023-01-19T03:38:09.752Z,96549.16
2023-01-19T03:40:38.559Z,96548.34
2023-01-19T03:43:08.072Z,96550.09
2023-01-19T03:45:39.160Z,96552.72
2023-01-19T03:48:07.603Z,96546.78
2023-01-19T03:50:35.568Z,96547.88
2023-01-19T03:53:13.609Z,96550.78
2023-01-19T03:55:45.656Z,96557.00
2023-01-19T03:58:13.736Z,96550.94
2023-01-19T04:00:41.930Z,96553.94
2023-01-19T04:03:16.150Z,96558.22
2023-01-19T04:05:44.711Z,96563.47
2023-01-19T04:08:13.018Z,96565.13
2023-01-19T04:10:40.742Z,96567.63
2023-01-19T04:13:08.830Z,96572.75
2023-01-19T04:15:36.732Z,96572.88
2023-01-19T04:18:05.236Z,96574.22
2023-01-19T04:20:33.793Z,96566.22
2023-01-19T04:23:02.121Z,96576.59
2023-01-19T04:25:30.213Z,96572.44
2023-01-19T04:28:01.756Z,96580.88
2023-01-19T04:30:29.641Z,96578.00
2023-01-19T04:33:00.132Z,96581.56
2023-01-19T04:35:28.640Z,96583.38
2023-01-19T04:37:56.638Z,96576.75
2023-01-19T04:40:24.584Z,96571.97
2023-01-19T04:42:52.295Z,96582.00
2023-01-19T04:45:20.253Z,96580.91
2023-01-19T04:47:48.096Z,96578.97
2023-01-19T04:50:16.175Z,96582.16
2023-01-19T04:52:44.021Z,96588.13
2023-01-19T04:55:11.982Z,96584.78
2023-01-19T04:57:39.949Z,96585.09
2023-01-19T05:00:09.128Z,96591.84
2023-01-19T05:02:37.150Z,96590.03
2023-01-19T05:05:05.635Z,96587.72
2023-01-19T05:07:33.475Z,96595.28
2023-01-19T05:10:01.675Z,96589.78
2023-01-19T05:12:29.402Z,96596.44
2023-01-19T05:14:57.244Z,96599.75
2023-01-19T05:17:25.324Z,96591.59
2023-01-19T05:19:53.168Z,96603.50
2023-01-19T05:22:21.011Z,96606.97
2023-01-19T05:24:48.970Z,96606.28
2023-01-19T05:27:16.697Z,96606.66
2023-01-19T05:29:44.535Z,96609.16
2023-01-19T05:32:13.699Z,96606.66
2023-01-19T05:34:41.543Z,96609.44
2023-01-19T05:37:09.389Z,96616.19
2023-01-19T05:39:37.349Z,96616.63
2023-01-19T05:42:05.548Z,96607.88
2023-01-19T05:44:33.387Z,96606.94
2023-01-19T05:47:01.159Z,96614.13
2023-01-19T05:49:28.959Z,96616.03
2023-01-19T05:51:56.794Z,96616.28
2023-01-19T05:54:24.876Z,96619.06
2023-01-19T05:56:52.723Z,96622.78
2023-01-19T05:59:24.131Z,96630.91
2023-01-19T06:01:53.025Z,96634.22
2023-01-19T06:04:21.548Z,96636.16
2023-01-19T06:06:50.471Z,96642.63
2023-01-19T06:09:18.547Z,96639.63
2023-01-19T06:11:46.856Z,96644.31
2023-01-19T06:14:14.938Z,96652.34
2023-01-19T06:16:42.762Z,96651.56
2023-01-19T06:19:10.506Z,96648.81
2023-01-19T06:21:38.464Z,96650.78
2023-01-19T06:24:06.793Z,96653.56
2023-01-19T06:26:34.633Z,96655.78
2023-01-19T06:29:02.472Z,96655.53
2023-01-19T06:31:30.835Z,96665.91
2023-01-19T06:33:58.767Z,96654.56
2023-01-19T06:36:26.485Z,96660.81
2023-01-19T06:38:54.321Z,96660.94
2023-01-19T06:41:22.165Z,96657.59
2023-01-19T06:43:49.893Z,96655.81
2023-01-19T06:46:17.784Z,96653.31
2023-01-19T06:48:45.567Z,96653.19
2023-01-19T06:51:13.410Z,96664.09
2023-01-19T06:53:41.254Z,96656.22
2023-01-19T06:56:09.719Z,96663.53
2023-01-19T06:58:38.262Z,96665.47
2023-01-19T07:01:07.416Z,96662.13
2023-01-19T07:03:36.714Z,96658.94
2023-01-19T07:06:08.504Z,96666.00
2023-01-19T07:08:37.788Z,96664.31
2023-01-19T07:11:26.520Z,96664.31
2023-01-19T07:13:56.630Z,96660.88
2023-01-19T07:16:24.549Z,96657.56
2023-01-19T07:18:52.449Z,96658.38
2023-01-19T07:21:20.294Z,96652.56
2023-01-19T07:23:52.851Z,96656.03
2023-01-19T07:26:22.094Z,96661.13
2023-01-19T07:28:49.933Z,96653.41
2023-01-19T07:31:19.145Z,96658.66
2023-01-19T07:33:47.180Z,96670.81
2023-01-19T07:36:15.372Z,96678.97
2023-01-19T07:38:43.105Z,96670.34
2023-01-19T07:41:11.663Z,96677.16
2023-01-19T07:43:39.504Z,96678.81
2023-01-19T07:46:08.376Z,96670.09
2023-01-19T07:48:36.274Z,96679.66
2023-01-19T07:51:10.449Z,96682.13
2023-01-19T07:53:41.693Z,96669.97
2023-01-19T07:56:10.280Z,96681.75
2023-01-19T07:58:39.073Z,96684.25
2023-01-19T08:01:09.677Z,96691.97
2023-01-19T08:03:37.965Z,96686.03
2023-01-19T08:06:07.245Z,96694.59
2023-01-19T08:08:34.994Z,96702.09
2023-01-19T08:11:03.096Z,96701.13
2023-01-19T08:13:30.769Z,96703.50
2023-01-19T08:15:58.680Z,96700.88
2023-01-19T08:18:26.474Z,96706.81
2023-01-19T08:20:54.415Z,96711.66
2023-01-19T08:23:22.146Z,96710.72
2023-01-19T08:25:49.979Z,96707.41
2023-01-19T08:28:18.908Z,96709.50
2023-01-19T08:30:53.976Z,96711.47
2023-01-19T08:33:23.718Z,96702.34
2023-01-19T08:35:54.069Z,96704.56
2023-01-19T08:38:22.815Z,96701.94
2023-01-19T08:40:50.836Z,96719.94
2023-01-19T08:43:18.796Z,96721.78
2023-01-19T08:45:51.932Z,96729.81
2023-01-19T08:48:22.414Z,96725.81
2023-01-19T08:50:52.169Z,96720.94
2023-01-19T08:53:21.135Z,96712.66
2023-01-19T08:55:50.025Z,96715.00
2023-01-19T08:58:20.498Z,96716.69
2023-01-19T09:00:48.962Z,96718.31
2023-01-19T09:03:16.946Z,96721.81
2023-01-19T09:05:44.858Z,96723.06
2023-01-19T09:08:14.740Z,96719.84
2023-01-19T09:10:51.470Z,96726.63
2023-01-19T09:13:20.627Z,96734.66
2023-01-19T09:15:48.630Z,96741.59
2023-01-19T09:18:19.431Z,96733.25
2023-01-19T09:20:49.551Z,96733.69
2023-01-19T09:23:20.646Z,96733.94
2023-01-19T09:25:49.210Z,96732.53
2023-01-19T09:28:17.937Z,96728.81
2023-01-19T09:30:45.883Z,96744.16
2023-01-19T09:33:17.284Z,96730.41
2023-01-19T09:35:47.299Z,96722.38
2023-01-19T09:38:20.057Z,96724.88
2023-01-19T09:40:55.218Z,96735.09
2023-01-19T09:44:09.388Z,96735.09
2023-01-19T09:46:42.111Z,96736.34
2023-01-19T09:49:26.672Z,96740.34
2023-01-19T09:51:54.381Z,96740.75
2023-01-19T09:54:57.533Z,96743.97
2023-01-19T09:57:27.424Z,96735.34
2023-01-19T09:59:59.502Z,96737.53
2023-01-19T10:03:04.396Z,96736.03
2023-01-19T10:05:44.808Z,96728.66
2023-01-19T10:08:55.476Z,96736.03
2023-01-19T10:11:52.737Z,96740.16
2023-01-19T10:14:43.022Z,96722.56
2023-01-19T10:17:26.336Z,96726.31
2023-01-19T10:19:57.530Z,96716.22
2023-01-19T10:22:28.521Z,96728.03
2023-01-19T10:25:01.876Z,96726.47
2023-01-19T10:27:34.258Z,96727.16
2023-01-19T10:30:02.460Z,96729.81
2023-01-19T10:32:35.923Z,96732.03
2023-01-19T10:35:21.939Z,96737.16
2023-01-19T10:37:56.289Z,96732.13
2023-01-19T10:40:52.770Z,96748.91
2023-01-19T10:43:37.879Z,96737.84
2023-01-19T10:46:08.295Z,96734.28
2023-01-19T10:48:42.027Z,96735.75
2023-01-19T10:51:11.235Z,96737.09
2023-01-19T10:53:38.997Z,96744.59
2023-01-19T10:56:26.249Z,96749.28
2023-01-19T10:58:54.525Z,96745.75
2023-01-19T11:01:28.408Z,96744.06
2023-01-19T11:04:03.576Z,96729.66
2023-01-19T11:06:34.309Z,96728.44
2023-01-19T11:09:20.277Z,96732.53
2023-01-19T11:11:51.720Z,96732.91
2023-01-19T11:14:24.832Z,96719.56
2023-01-19T11:16:56.876Z,96724.78
2023-01-19T11:19:31.795Z,96730.25
2023-01-19T11:22:33.713Z,96724.97
2023-01-19T11:25:04.315Z,96725.75
2023-01-19T11:27:36.597Z,96723.94
2023-01-19T11:30:24.004Z,96722.97
2023-01-19T11:32:52.584Z,96719.88
2023-01-19T11:35:40.684Z,96722.78
2023-01-19T11:38:27.132Z,96716.53
2023-01-19T11:40:58.571Z,96719.72
2023-01-19T11:43:43.568Z,96720.53
2023-01-19T11:46:16.737Z,96720.34
2023-01-19T11:49:03.494Z,96733.06
2023-01-19T11:51:39.738Z,96726.94
2023-01-19T11:54:23.868Z,96729.44
2023-01-19T11:56:54.502Z,96732.13
2023-01-19T11:59:25.008Z,96730.94
2023-01-19T12:01:57.961Z,96743.09
2023-01-19T12:04:33.405Z,96739.38
2023-01-19T12:07:07.612Z,96727.69
2023-01-19T12:09:43.843Z,96738.44
2023-01-19T12:12:33.292Z,96731.53
2023-01-19T12:15:11.207Z,96733.91
2023-01-19T12:17:52.155Z,96735.31
2023-01-19T12:20:44.565Z,96731.34
2023-01-19T12:23:48.174Z,96731.41
2023-01-19T12:26:55.736Z,96742.03
2023-01-19T12:29:29.220Z,96734.50
2023-01-19T12:32:16.669Z,96731.84
2023-01-19T12:34:49.867Z,96739.34
2023-01-19T12:37:43.287Z,96734.66
2023-01-19T12:40:22.173Z,96744.91
2023-01-19T12:43:04.154Z,96738.34
2023-01-19T12:45:38.004Z,96733.81
2023-01-19T12:48:11.589Z,96743.22
2023-01-19T12:50:40.031Z,96738.13
2023-01-19T12:53:20.535Z,96739.03
2023-01-19T12:56:00.442Z,96743.41
2023-01-19T12:58:28.661Z,96745.19
2023-01-19T13:01:21.433Z,96740.16
2023-01-19T13:04:30.448Z,96744.41
2023-01-19T13:07:10.545Z,96741.47
2023-01-19T13:09:39.335Z,96745.63
2023-01-19T13:12:25.300Z,96739.75
2023-01-19T13:15:34.732Z,96735.53
2023-01-19T13:18:03.342Z,96739.31
2023-01-19T13:20:57.105Z,96745.97
2023-01-19T13:23:52.676Z,96738.94
2023-01-19T13:26:30.957Z,96740.56
2023-01-19T13:29:35.884Z,96739.78
2023-01-19T13:32:21.477Z,96736.13
2023-01-19T13:34:58.635Z,96742.22
2023-01-19T13:37:38.889Z,96740.47
2023-01-19T13:40:15.008Z,96733.84
2023-01-19T13:42:44.061Z,96741.28
2023-01-19T13:45:39.987Z,96742.25
2023-01-19T13:48:14.652Z,96749.59
2023-01-19T13:50:44.543Z,96745.84
2023-01-19T13:53:20.620Z,96742.22
2023-01-19T13:55:48.538Z,96747.72
2023-01-19T13:58:24.385Z,96765.63
2023-01-19T14:00:52.825Z,96755.50
2023-01-19T14:03:23.955Z,96759.03
2023-01-19T14:05:54.458Z,96761.75
2023-01-19T14:08:23.097Z,96763.97
2023-01-19T14:10:56.667Z,96761.03
2023-01-19T14:13:29.790Z,96760.66
2023-01-19T14:16:01.524Z,96754.56
2023-01-19T14:18:34.850Z,96757.19
2023-01-19T14:21:09.062Z,96755.91
2023-01-19T14:23:50.576Z,96755.38
2023-01-19T14:26:39.891Z,96759.78
2023-01-19T14:29:10.495Z,96762.91
2023-01-19T14:32:01.546Z,96750.25
2023-01-19T14:34:39.173Z,96764.19
2023-01-19T14:37:37.257Z,96752.44
2023-01-19T14:40:11.588Z,96762.13
2023-01-19T14:42:45.901Z,96757.59
2023-01-19T14:45:23.107Z,96757.41
2023-01-19T14:48:05.835Z,96767.22
2023-01-19T14:50:41.474Z,96750.81
2023-01-19T14:53:24.934Z,96752.16
2023-01-19T14:56:04.659Z,96756.31
2023-01-19T14:58:35.958Z,96755.19
2023-01-19T15:01:04.651Z,96761.84
2023-01-19T15:03:47.731Z,96765.97
2023-01-19T15:06:20.388Z,96761.38
2023-01-19T15:08:50.107Z,96766.94
2023-01-19T15:11:38.370Z,96776.59
2023-01-19T15:14:06.579Z,96769.34
2023-01-19T15:16:36.093Z,96773.81
2023-01-19T15:19:04.053Z,96775.16
2023-01-19T15:21:31.786Z,96772.75
2023-01-19T15:24:00.490Z,96765.09
2023-01-19T15:26:28.306Z,96768.28
2023-01-19T15:28:56.679Z,96764.34
2023-01-19T15:31:26.332Z,96761.72
2023-01-19T15:33:54.479Z,96761.56
2023-01-19T15:36:24.301Z,96767.53
2023-01-19T15:38:52.094Z,96756.31
2023-01-19T15:41:28.076Z,96763.69
2023-01-19T15:43:56.285Z,96764.63
2023-01-19T15:46:25.834Z,96757.03
2023-01-19T15:48:54.126Z,96765.91
2023-01-19T15:51:25.943Z,96760.63
2023-01-19T15:53:54.850Z,96770.38
2023-01-19T15:56:29.069Z,96758.69
2023-01-19T15:58:58.342Z,96755.22
2023-01-19T16:01:32.417Z,96758.16
2023-01-19T16:04:03.142Z,96756.34
2023-01-19T16:06:32.302Z,96760.09
2023-01-19T16:09:01.569Z,96756.78
2023-01-19T16:11:33.147Z,96756.09
2023-01-19T16:14:01.600Z,96763.63
2023-01-19T16:16:29.558Z,96760.63
2023-01-19T16:18:57.554Z,96762.03
2023-01-19T16:21:25.880Z,96758.84
2023-01-19T16:23:54.285Z,96763.44
2023-01-19T16:26:32.592Z,96758.91
2023-01-19T16:29:08.810Z,96760.72
2023-01-19T16:31:38.765Z,96764.47
2023-01-19T16:34:07.253Z,96767.53
2023-01-19T16:36:37.619Z,96771.31
2023-01-19T16:39:13.974Z,96774.13
2023-01-19T16:41:43.263Z,96774.28
2023-01-19T16:44:13.275Z,96772.94
2023-01-19T16:46:44.719Z,96770.59
2023-01-19T16:49:18.550Z,96773.66
2023-01-19T16:51:46.871Z,96774.94
2023-01-19T16:54:18.552Z,96770.22
2023-01-19T16:56:46.650Z,96777.28
2023-01-19T16:59:17.233Z,96769.53
2023-01-19T17:01:45.686Z,96763.59
2023-01-19T17:04:13.886Z,96770.25
2023-01-19T17:06:41.608Z,96775.91
2023-01-19T17:09:09.470Z,96774.28
2023-01-19T17:11:39.325Z,96769.28
2023-01-19T17:14:13.528Z,96770.28
2023-01-19T17:16:42.508Z,96772.91
2023-01-19T17:19:15.570Z,96765.97
2023-01-19T17:21:48.850Z,96771.91
2023-01-19T17:24:17.506Z,96768.72
2023-01-19T17:26:48.485Z,96764.59
2023-01-19T17:29:16.671Z,96772.19
2023-01-19T17:31:45.833Z,96766.25
2023-01-19T17:34:13.670Z,96760.16
2023-01-19T17:36:41.387Z,96762.50
2023-01-19T17:39:14.750Z,96763.47
2023-01-19T17:41:42.711Z,96761.81
2023-01-19T17:44:11.166Z,96762.78
2023-01-19T17:46:39.240Z,96769.03
2023-01-19T17:49:08.426Z,96770.69
2023-01-19T17:51:37.961Z,96775.94
2023-01-19T17:54:05.771Z,96768.03
2023-01-19T17:56:37.701Z,96769.03
2023-01-19T17:59:07.750Z,96770.00
2023-01-19T18:01:40.935Z,96774.56
2023-01-19T18:04:09.413Z,96777.34
2023-01-19T18:06:38.304Z,96782.59
2023-01-19T18:09:07.351Z,96783.72
2023-01-19T18:11:35.539Z,96772.50
2023-01-19T18:14:03.640Z,96782.47
2023-01-19T18:16:32.480Z,96783.41
2023-01-19T18:19:00.150Z,96785.22
2023-01-19T18:21:28.857Z,96789.53
2023-01-19T18:24:03.992Z,96791.06
2023-01-19T18:26:34.489Z,96790.78
2023-01-19T18:29:02.441Z,96790.50
2023-01-19T18:31:31.401Z,96800.19
2023-01-19T18:33:59.211Z,96800.06
2023-01-19T18:36:27.288Z,96805.47
2023-01-19T18:38:55.008Z,96806.72
2023-01-19T18:41:22.974Z,96799.94
2023-01-19T18:43:52.139Z,96803.81
2023-01-19T18:46:21.230Z,96798.81
2023-01-19T18:48:49.015Z,96797.53
2023-01-19T18:51:17.935Z,96799.91
2023-01-19T18:53:45.900Z,96809.31
2023-01-19T18:56:16.148Z,96802.25
2023-01-19T18:58:44.245Z,96799.75
2023-01-19T19:01:29.746Z,96790.47
2023-01-19T19:03:59.714Z,96783.94
2023-01-19T19:06:28.047Z,96785.75
2023-01-19T19:08:59.187Z,96783.25
2023-01-19T19:11:27.437Z,96783.25
2023-01-19T19:14:00.727Z,96782.97
2023-01-19T19:16:30.217Z,96784.22
2023-01-19T19:18:59.487Z,96783.94
2023-01-19T19:21:27.581Z,96782.28
2023-01-19T19:23:57.688Z,96784.78
2023-01-19T19:26:28.078Z,96784.34
2023-01-19T19:28:56.263Z,96777.13
2023-01-19T19:31:26.156Z,96774.63
2023-01-19T19:33:56.151Z,96779.75
2023-01-19T19:36:26.145Z,96776.16
2023-01-19T19:38:54.468Z,96776.84
2023-01-19T19:41:26.965Z,96784.44
2023-01-19T19:43:55.671Z,96790.03
2023-01-19T19:46:24.616Z,96788.47
2023-01-19T19:48:53.758Z,96792.53
2023-01-19T19:51:28.438Z,96796.53
2023-01-19T19:54:00.497Z,96797.09
2023-01-19T19:56:31.697Z,96794.97
2023-01-19T19:58:59.906Z,96790.94
2023-01-19T20:01:32.968Z,96794.25
2023-01-19T20:04:10.714Z,96794.94
2023-01-19T20:06:44.790Z,96803.38
2023-01-19T20:09:14.141Z,96803.25
2023-01-19T20:11:44.191Z,96800.75
2023-01-19T20:14:14.540Z,96799.78
2023-01-19T20:16:42.621Z,96805.06
2023-01-19T20:19:10.944Z,96798.44
2023-01-19T20:21:41.877Z,96801.19
2023-01-19T20:24:15.990Z,96807.59
2023-01-19T20:26:51.516Z,96800.50
2023-01-19T20:29:20.198Z,96804.78
2023-01-19T20:31:55.043Z,96802.84
2023-01-19T20:34:28.130Z,96810.47
2023-01-19T20:36:55.968Z,96812.16
2023-01-19T20:39:24.772Z,96812.28
2023-01-19T20:41:52.736Z,96803.28
2023-01-19T20:44:23.832Z,96807.88
2023-01-19T20:46:52.983Z,96818.53
2023-01-19T20:49:21.181Z,96813.16
2023-01-19T20:51:51.178Z,96816.06
2023-01-19T20:54:22.782Z,96816.91
2023-01-19T20:56:50.820Z,96826.78
2023-01-19T20:59:19.034Z,96828.56
2023-01-19T21:01:46.853Z,96826.91
2023-01-19T21:04:15.784Z,96826.91
2023-01-19T21:06:44.229Z,96827.88
2023-01-19T21:09:11.951Z,96828.00
2023-01-19T21:11:40.409Z,96834.94
2023-01-19T21:14:08.244Z,96836.31
2023-01-19T21:16:37.539Z,96830.78
2023-01-19T21:19:05.840Z,96846.97
2023-01-19T21:21:33.591Z,96838.81
2023-01-19T21:24:03.446Z,96845.72
2023-01-19T21:26:33.221Z,96841.31
2023-01-19T21:29:03.478Z,96847.13
2023-01-19T21:31:31.645Z,96855.72
2023-01-19T21:33:59.742Z,96851.28
2023-01-19T21:36:27.701Z,96852.91
2023-01-19T21:39:00.740Z,96853.59
2023-01-19T21:41:30.377Z,96844.19
2023-01-19T21:44:00.019Z,96844.31
2023-01-19T21:46:33.149Z,96847.81
2023-01-19T21:49:04.309Z,96845.19
2023-01-19T21:51:35.637Z,96852.53
2023-01-19T21:54:05.646Z,96858.50
2023-01-19T21:56:34.714Z,96854.72
2023-01-19T21:59:03.416Z,96863.19
2023-01-19T22:01:33.096Z,96863.88
2023-01-19T22:04:01.286Z,96862.38
2023-01-19T22:06:29.306Z,96868.72
2023-01-19T22:08:58.377Z,96865.13
2023-01-19T22:11:26.658Z,96872.50
2023-01-19T22:13:54.744Z,96879.56
2023-01-19T22:16:23.945Z,96882.22
2023-01-19T22:18:59.594Z,96879.47
2023-01-19T22:21:31.345Z,96880.84
2023-01-19T22:24:01.229Z,96887.06
2023-01-19T22:26:30.744Z,96894.97
2023-01-19T22:29:01.481Z,96891.22
2023-01-19T22:31:30.669Z,96891.22
2023-01-19T22:33:58.725Z,96892.09
2023-01-19T22:36:35.806Z,96893.47
2023-01-19T22:39:11.688Z,96888.75
2023-01-19T22:41:47.098Z,96889.44
2023-01-19T22:44:21.161Z,96898.19
2023-01-19T22:46:50.365Z,96902.34
2023-01-19T22:49:18.788Z,96902.75
2023-01-19T22:51:47.096Z,96904.97
2023-01-19T22:54:15.291Z,96900.56
2023-01-19T22:56:43.617Z,96903.03
2023-01-19T22:59:11.576Z,96902.34
2023-01-19T23:01:43.095Z,96898.75
2023-01-19T23:04:14.722Z,96898.19
2023-01-19T23:06:43.383Z,96890.41
2023-01-19T23:09:14.117Z,96890.84
2023-01-19T23:11:45.694Z,96894.72
2023-01-19T23:14:17.950Z,96897.50
2023-01-19T23:16:47.203Z,96903.59
2023-01-19T23:19:17.188Z,96908.59
2023-01-19T23:21:45.797Z,96907.72
2023-01-19T23:24:13.525Z,96914.00
2023-01-19T23:26:41.373Z,96910.53
2023-01-19T23:29:14.364Z,96909.69
2023-01-19T23:31:49.050Z,96909.69
2023-01-19T23:34:17.514Z,96908.72
2023-01-19T23:36:45.810Z,96905.81
2023-01-19T23:39:20.747Z,96906.50
2023-01-19T23:41:49.192Z,96908.59
2023-01-19T23:44:18.133Z,96912.31
2023-01-19T23:46:46.425Z,96908.72
2023-01-19T23:49:14.394Z,96914.56
2023-01-19T23:51:42.355Z,96914.81
2023-01-19T23:54:12.488Z,96919.13
2023-01-19T23:56:40.462Z,96913.16
2023-01-19T23:59:14.994Z,96920.38
